Shao Shan 5 — VRKO9 — position and weather

sailwx.info

Track history (hours):
 
Tides and Currents Weather Stations Pressure Air Temp Water Temp Dewpoint Dewpoint Depression Visibility Wind Speed Wind Dir Waves Ship Positions

Shao Shan 5

Last reported at 2014-Jul-03 09:22 UTC. Time now 2014-Jul-24 03:52 UTC.
Position N 26°03' W 120°40'.
Warning: this ship's position is 20 days out of date.

Length 225 m; draft 12 m.

Type: Cargo ship. MMSI: 477325700.

Date/timePositionNaut miles runAvg speedWind from/ knotsBaromVisibWave heightAir tempDewpointWater temp
2014-Jul-03 09:22N 26°03' W 120°40'1311.4
2014-Jul-03 08:15N 26°09' W 120°53'811.3
2014-Jul-03 07:32N 26°13' W 121°01'1211.5
2014-Jul-03 06:30N 26°18' W 121°12'1111.3
2014-Jul-03 05:33N 26°23' W 121°23'1611.3
2014-Jul-03 04:08N 26°31' W 121°39'911.3
2014-Jul-03 03:20N 26°35' W 121°48'1011.4
2014-Jul-03 02:28N 26°39' W 121°58'1011.1
2014-Jul-03 01:33N 26°44' W 122°08'1111.3
2014-Jul-03 00:33N 26°49' W 122°19'1110.9
2014-Jul-02 23:31N 26°54' W 122°30'1111.2
2014-Jul-02 22:30N 26°59' W 122°42'1111.2
2014-Jul-02 21:33N 27°04' W 122°53'1211.4
2014-Jul-02 20:33N 27°09' W 123°04'1611.7
2014-Jul-02 19:10N 27°16' W 123°20'1211.6
2014-Jul-02 18:10N 27°22' W 123°32'4211.6
2014-Jul-02 14:32N 27°41' W 124°14'  
Track history (hours):
 
Tides and Currents Weather Stations Pressure Air Temp Water Temp Dewpoint Dewpoint Depression Visibility Wind Speed Wind Dir Waves Ship Positions

Shao Shan 5

Last reported at 2014-Jul-03 09:22 UTC. Time now 2014-Jul-24 03:52 UTC.
Position N 26°03' W 120°40'.
Warning: this ship's position is 20 days out of date.

Length 225 m; draft 12 m.

Type: Cargo ship. MMSI: 477325700.

Date/timePositionNaut miles runAvg speedWind from/ knotsBaromVisibWave heightAir tempDewpointWater temp
2014-Jul-03 09:22N 26°03' W 120°40'1311.4
2014-Jul-03 08:15N 26°09' W 120°53'811.3
2014-Jul-03 07:32N 26°13' W 121°01'1211.5
2014-Jul-03 06:30N 26°18' W 121°12'1111.3
2014-Jul-03 05:33N 26°23' W 121°23'1611.3
2014-Jul-03 04:08N 26°31' W 121°39'911.3
2014-Jul-03 03:20N 26°35' W 121°48'1011.4
2014-Jul-03 02:28N 26°39' W 121°58'1011.1
2014-Jul-03 01:33N 26°44' W 122°08'1111.3
2014-Jul-03 00:33N 26°49' W 122°19'1110.9
2014-Jul-02 23:31N 26°54' W 122°30'1111.2
2014-Jul-02 22:30N 26°59' W 122°42'1111.2
2014-Jul-02 21:33N 27°04' W 122°53'1211.4
2014-Jul-02 20:33N 27°09' W 123°04'1611.7
2014-Jul-02 19:10N 27°16' W 123°20'1211.6
2014-Jul-02 18:10N 27°22' W 123°32'4211.6
2014-Jul-02 14:32N 27°41' W 124°14'  

Dump ship's entire track history